»·PEaware :: SWA445 KPHX-KSAN

SWA445 :: KPHX-KSAN

FLIGHT INFORMATION

Flight Status: Arrived
Operator:
Southwest Airlines
More flights by this operator :: More flights under this callsign
Pilot: Alfredo R. (12181)
Aircraft: BOEING 737-300
(B733)
More flights by this aircraft type
Origin: KPHX Phoenix Sky Harbor Intl
United States
Destination: KSAN San Diego Intl-Lindbergh
United States
More flights between these airports :: More routes between these airports
Route: JUDTH6 MOHAK J2 HOGGZ LUCKI1
File this flight plan on PilotEdge
Remarks:
Altitude:
(Current/Filed)
32,000ft
Speed:
(Current/Filed)
425kts
Departed: 20-Mar-17 08:04 PM
Arrived: 20-Mar-17 09:00 PM
Distance/Time
Traveled:
264nm/0:56
Distance/Time
To Go:
Arrived

Flight Plot

Page will automatically refresh every two minutes.

Flight plan parsing failed; only flown route is shown


Map Options




Map Legend


Flown Route
Filed Route
Departure Airport
Arrival Airport
Navaid (VOR, NDB)
Fix

Horizontal Profiles

Position Reports

Time Latitude Longitude Heading Altitude Ground
Speed
20-Mar-17 19:26 33.433677 -111.996233 314 1141ft 0kts
20-Mar-17 19:27 33.433677 -111.996233 314 1141ft 0kts
20-Mar-17 19:28 33.433677 -111.996233 314 1141ft 0kts
20-Mar-17 19:29 33.433677 -111.996233 314 1141ft 0kts
20-Mar-17 19:30 33.433677 -111.996233 314 1141ft 0kts
20-Mar-17 19:31 33.433677 -111.996233 314 1141ft 0kts
20-Mar-17 19:32 33.433677 -111.996233 314 1141ft 0kts
20-Mar-17 19:33 33.433677 -111.996233 314 1141ft 0kts
20-Mar-17 19:34 33.433677 -111.996233 314 1141ft 0kts
20-Mar-17 19:35 33.433677 -111.996233 314 1141ft 0kts
20-Mar-17 19:36 33.433677 -111.996233 314 1141ft 0kts
20-Mar-17 19:37 33.433677 -111.996233 314 1141ft 0kts
20-Mar-17 19:38 33.433677 -111.996233 314 1141ft 0kts
20-Mar-17 19:39 33.433677 -111.996233 314 1141ft 0kts
20-Mar-17 19:40 33.433677 -111.996233 314 1141ft 0kts
20-Mar-17 19:41 33.433677 -111.996233 314 1141ft 0kts
20-Mar-17 19:42 33.433677 -111.996233 314 1141ft 0kts
20-Mar-17 19:43 33.433677 -111.996233 314 1141ft 0kts
20-Mar-17 19:44 33.433677 -111.996233 314 1141ft 0kts
20-Mar-17 19:45 33.433515 -111.995904 274 1141ft 0kts
20-Mar-17 19:46 33.433546 -111.995603 179 1141ft 0kts
20-Mar-17 19:47 33.433546 -111.995603 179 1141ft 0kts
20-Mar-17 19:48 33.433546 -111.995603 179 1141ft 0kts
20-Mar-17 19:49 33.433546 -111.995603 179 1141ft 0kts
20-Mar-17 19:50 33.433546 -111.995603 179 1141ft 0kts
20-Mar-17 19:51 33.433546 -111.995603 179 1141ft 0kts
20-Mar-17 19:52 33.433546 -111.995603 179 1141ft 0kts
20-Mar-17 19:53 33.433546 -111.995603 179 1141ft 0kts
20-Mar-17 19:54 33.433531 -111.995602 179 1141ft 0kts
20-Mar-17 19:55 33.433218 -111.995719 198 1141ft 2kts
20-Mar-17 19:56 33.432818 -111.996964 270 1141ft 6kts
20-Mar-17 19:57 33.432828 -112.000250 270 1141ft 13kts
20-Mar-17 19:58 33.432871 -112.005455 269 1141ft 17kts
20-Mar-17 19:59 33.432872 -112.011742 269 1141ft 19kts
20-Mar-17 20:00 33.432865 -112.018453 269 1141ft 20kts
20-Mar-17 20:01 33.432875 -112.024995 270 1141ft 14kts
20-Mar-17 20:02 33.432165 -112.026969 181 1141ft 0kts
20-Mar-17 20:03 33.432165 -112.026969 181 1141ft 0kts
20-Mar-17 20:04 33.431119 -112.026709 115 1141ft 7kts
20-Mar-17 20:05 33.431054 -112.021397 90 1141ft 41kts
20-Mar-17 20:06 33.430561 -111.979249 95 1899ft 191kts
20-Mar-17 20:07 33.432101 -111.908227 88 3725ft 244kts
20-Mar-17 20:08 33.402099 -111.846752 168 6066ft 232kts
20-Mar-17 20:09 33.353888 -111.882515 257 8403ft 237kts
20-Mar-17 20:10 33.359077 -111.966140 271 10058ft 281kts
20-Mar-17 20:11 33.335587 -112.060733 233 11284ft 325kts
20-Mar-17 20:12 33.282088 -112.149331 232 13753ft 335kts
20-Mar-17 20:13 33.226420 -112.239931 232 16076ft 346kts
20-Mar-17 20:14 33.168509 -112.333809 233 18214ft 357kts
20-Mar-17 20:15 33.108841 -112.430281 233 20211ft 367kts
20-Mar-17 20:16 33.047881 -112.528576 234 21998ft 377kts
20-Mar-17 20:17 32.984910 -112.629847 234 23621ft 387kts
20-Mar-17 20:18 32.946047 -112.747440 260 25169ft 393kts
20-Mar-17 20:19 32.928714 -112.877040 261 26638ft 400kts
20-Mar-17 20:20 32.910891 -113.008288 262 28190ft 401kts
20-Mar-17 20:21 32.893846 -113.132301 263 30962ft 363kts
20-Mar-17 20:22 32.877839 -113.248866 263 31987ft 367kts
20-Mar-17 20:23 32.860535 -113.373376 262 31974ft 397kts
20-Mar-17 20:24 32.842217 -113.504110 262 32012ft 399kts
20-Mar-17 20:25 32.823974 -113.633418 262 31999ft 397kts
20-Mar-17 20:26 32.806859 -113.763029 262 31975ft 398kts
20-Mar-17 20:27 32.788719 -113.891790 261 31961ft 395kts
20-Mar-17 20:28 32.775832 -114.021559 270 31983ft 397kts
20-Mar-17 20:29 32.779044 -114.152091 273 31970ft 396kts
20-Mar-17 20:30 32.784335 -114.282325 272 31965ft 394kts
20-Mar-17 20:31 32.793516 -114.411135 284 31976ft 395kts
20-Mar-17 20:32 32.827244 -114.536302 286 31984ft 399kts
20-Mar-17 20:33 32.861615 -114.661630 286 31925ft 405kts
20-Mar-17 20:34 32.877779 -114.791031 266 30730ft 389kts
20-Mar-17 20:35 32.873780 -114.919281 267 29551ft 397kts
20-Mar-17 20:36 32.870830 -115.050680 267 28338ft 389kts
20-Mar-17 20:37 32.867805 -115.176935 267 27135ft 386kts
20-Mar-17 20:38 32.864675 -115.303420 266 25937ft 377kts
20-Mar-17 20:39 32.851740 -115.426803 258 24465ft 375kts
20-Mar-17 20:40 32.834828 -115.547407 258 22963ft 368kts
20-Mar-17 20:41 32.816191 -115.665583 257 21467ft 363kts
20-Mar-17 20:42 32.797398 -115.782380 256 20072ft 355kts
20-Mar-17 20:43 32.781811 -115.896684 261 18868ft 350kts
20-Mar-17 20:44 32.772998 -116.010394 262 17671ft 344kts
20-Mar-17 20:45 32.764674 -116.120280 262 16340ft 324kts
20-Mar-17 20:46 32.756677 -116.224664 261 14851ft 317kts
20-Mar-17 20:47 32.748580 -116.323638 261 13327ft 289kts
20-Mar-17 20:48 32.740825 -116.416442 261 11840ft 282kts
20-Mar-17 20:49 32.733597 -116.507744 262 10350ft 277kts
20-Mar-17 20:50 32.726485 -116.597267 261 8857ft 270kts
20-Mar-17 20:51 32.718791 -116.681154 261 7428ft 266kts
20-Mar-17 20:52 32.711376 -116.766811 260 6058ft 253kts
20-Mar-17 20:53 32.699747 -116.842662 249 5755ft 238kts
20-Mar-17 20:54 32.679998 -116.910196 250 4664ft 222kts
20-Mar-17 20:55 32.679367 -116.964494 284 3901ft 198kts
20-Mar-17 20:56 32.690376 -117.011060 286 3405ft 181kts
20-Mar-17 20:57 32.701137 -117.055853 287 2677ft 145kts
20-Mar-17 20:58 32.711586 -117.100924 284 1785ft 148kts
20-Mar-17 20:59 32.722421 -117.144436 287 651ft 135kts
20-Mar-17 21:00 32.733031 -117.187223 283 24ft 120kts
20-Mar-17 21:01 32.735050 -117.198445 251 24ft 8kts
20-Mar-17 21:02 32.734791 -117.199075 181 24ft 1kts
20-Mar-17 21:03 32.734236 -117.197069 140 24ft 7kts
20-Mar-17 21:04 32.733083 -117.197251 180 24ft 3kts
20-Mar-17 21:05 32.732748 -117.196996 137 24ft 0kts
20-Mar-17 21:06 32.732748 -117.196996 137 24ft 0kts
20-Mar-17 21:07 32.732748 -117.196996 137 24ft 0kts

Navigation Log

Ident Type
Flight plan parsing failed, navigation log unavailable